sensor_id;sensor_type;location;lat;lon;timestamp;P1;durP1;ratioP1;P2;durP2;ratioP2
69161;SDS011;56269;51.738;21.652;2022-07-01T00:00:22;21.27;;;13.90;;
69161;SDS011;56269;51.738;21.652;2022-07-01T00:03:01;19.73;;;14.02;;
69161;SDS011;56269;51.738;21.652;2022-07-01T00:05:27;20.08;;;14.65;;
69161;SDS011;56269;51.738;21.652;2022-07-01T00:07:53;22.90;;;14.50;;
69161;SDS011;56269;51.738;21.652;2022-07-01T00:10:19;22.83;;;15.90;;
69161;SDS011;56269;51.738;21.652;2022-07-01T00:12:45;24.53;;;16.27;;
69161;SDS011;56269;51.738;21.652;2022-07-01T00:15:12;24.20;;;16.30;;
69161;SDS011;56269;51.738;21.652;2022-07-01T00:17:38;21.63;;;16.30;;
69161;SDS011;56269;51.738;21.652;2022-07-01T00:20:05;24.88;;;16.33;;
69161;SDS011;56269;51.738;21.652;2022-07-01T00:22:36;23.75;;;16.40;;
69161;SDS011;56269;51.738;21.652;2022-07-01T00:25:02;24.47;;;17.07;;
69161;SDS011;56269;51.738;21.652;2022-07-01T00:27:28;22.38;;;16.00;;
69161;SDS011;56269;51.738;21.652;2022-07-01T00:29:54;25.90;;;16.65;;
69161;SDS011;56269;51.738;21.652;2022-07-01T00:32:20;24.35;;;17.40;;
69161;SDS011;56269;51.738;21.652;2022-07-01T00:34:46;27.93;;;17.00;;
69161;SDS011;56269;51.738;21.652;2022-07-01T00:37:12;26.05;;;18.05;;
69161;SDS011;56269;51.738;21.652;2022-07-01T00:39:38;24.73;;;17.27;;
69161;SDS011;56269;51.738;21.652;2022-07-01T00:42:05;29.48;;;18.17;;
69161;SDS011;56269;51.738;21.652;2022-07-01T00:44:31;23.97;;;17.30;;
69161;SDS011;56269;51.738;21.652;2022-07-01T00:46:58;29.08;;;18.23;;
69161;SDS011;56269;51.738;21.652;2022-07-01T00:49:28;25.80;;;18.33;;
69161;SDS011;56269;51.738;21.652;2022-07-01T00:51:54;24.38;;;17.55;;
69161;SDS011;56269;51.738;21.652;2022-07-01T00:54:21;23.20;;;17.55;;
69161;SDS011;56269;51.738;21.652;2022-07-01T00:56:47;23.50;;;17.40;;
69161;SDS011;56269;51.738;21.652;2022-07-01T00:59:14;22.92;;;17.05;;
69161;SDS011;56269;51.738;21.652;2022-07-01T01:01:40;25.55;;;18.27;;
69161;SDS011;56269;51.738;21.652;2022-07-01T01:04:06;25.77;;;17.67;;
69161;SDS011;56269;51.738;21.652;2022-07-01T01:06:33;24.00;;;16.95;;
69161;SDS011;56269;51.738;21.652;2022-07-01T01:08:59;22.33;;;16.80;;
69161;SDS011;56269;51.738;21.652;2022-07-01T01:11:26;24.25;;;16.30;;
69161;SDS011;56269;51.738;21.652;2022-07-01T01:13:52;25.02;;;16.67;;
69161;SDS011;56269;51.738;21.652;2022-07-01T01:16:19;23.35;;;17.33;;
69161;SDS011;56269;51.738;21.652;2022-07-01T01:18:46;23.25;;;17.48;;
69161;SDS011;56269;51.738;21.652;2022-07-01T01:21:12;20.13;;;14.00;;
69161;SDS011;56269;51.738;21.652;2022-07-01T01:23:38;19.17;;;11.70;;
69161;SDS011;56269;51.738;21.652;2022-07-01T01:26:14;20.40;;;12.02;;
69161;SDS011;56269;51.738;21.652;2022-07-01T01:28:41;23.83;;;13.48;;
69161;SDS011;56269;51.738;21.652;2022-07-01T01:31:07;19.67;;;12.70;;
69161;SDS011;56269;51.738;21.652;2022-07-01T01:33:33;17.50;;;9.90;;
69161;SDS011;56269;51.738;21.652;2022-07-01T01:35:59;44.00;;;15.27;;
69161;SDS011;56269;51.738;21.652;2022-07-01T01:38:25;26.98;;;18.35;;
69161;SDS011;56269;51.738;21.652;2022-07-01T01:40:51;26.05;;;20.00;;
69161;SDS011;56269;51.738;21.652;2022-07-01T01:43:17;26.67;;;19.57;;
69161;SDS011;56269;51.738;21.652;2022-07-01T01:45:44;22.05;;;15.27;;
69161;SDS011;56269;51.738;21.652;2022-07-01T01:48:09;23.63;;;13.70;;
69161;SDS011;56269;51.738;21.652;2022-07-01T01:50:35;22.20;;;14.52;;
69161;SDS011;56269;51.738;21.652;2022-07-01T01:53:02;21.90;;;14.70;;
69161;SDS011;56269;51.738;21.652;2022-07-01T01:55:27;21.83;;;13.40;;
69161;SDS011;56269;51.738;21.652;2022-07-01T01:57:53;20.38;;;13.27;;
69161;SDS011;56269;51.738;21.652;2022-07-01T02:00:19;22.20;;;13.63;;
69161;SDS011;56269;51.738;21.652;2022-07-01T02:02:45;89.90;;;19.10;;
69161;SDS011;56269;51.738;21.652;2022-07-01T02:05:11;21.60;;;17.42;;
69161;SDS011;56269;51.738;21.652;2022-07-01T02:07:38;51.45;;;18.60;;
69161;SDS011;56269;51.738;21.652;2022-07-01T02:10:05;47.63;;;18.05;;
69161;SDS011;56269;51.738;21.652;2022-07-01T02:12:32;28.38;;;18.13;;
69161;SDS011;56269;51.738;21.652;2022-07-01T02:14:58;48.67;;;17.57;;
69161;SDS011;56269;51.738;21.652;2022-07-01T02:17:24;73.25;;;19.17;;
69161;SDS011;56269;51.738;21.652;2022-07-01T02:19:51;26.38;;;18.52;;
69161;SDS011;56269;51.738;21.652;2022-07-01T02:22:33;21.85;;;17.33;;
69161;SDS011;56269;51.738;21.652;2022-07-01T02:24:58;25.45;;;17.92;;
69161;SDS011;56269;51.738;21.652;2022-07-01T02:27:25;31.37;;;17.90;;
69161;SDS011;56269;51.738;21.652;2022-07-01T02:29:51;65.90;;;19.38;;
69161;SDS011;56269;51.738;21.652;2022-07-01T02:32:16;52.13;;;22.75;;
69161;SDS011;56269;51.738;21.652;2022-07-01T02:34:43;24.45;;;17.35;;
69161;SDS011;56269;51.738;21.652;2022-07-01T02:37:08;23.27;;;16.53;;
69161;SDS011;56269;51.738;21.652;2022-07-01T02:39:35;21.98;;;17.80;;
69161;SDS011;56269;51.738;21.652;2022-07-01T02:42:01;22.67;;;17.15;;
69161;SDS011;56269;51.738;21.652;2022-07-01T02:44:45;22.13;;;17.67;;
69161;SDS011;56269;51.738;21.652;2022-07-01T02:47:11;24.15;;;17.40;;
69161;SDS011;56269;51.738;21.652;2022-07-01T02:49:37;25.97;;;18.37;;
69161;SDS011;56269;51.738;21.652;2022-07-01T02:52:04;21.33;;;16.92;;
69161;SDS011;56269;51.738;21.652;2022-07-01T02:54:31;24.80;;;17.10;;
69161;SDS011;56269;51.738;21.652;2022-07-01T02:56:57;24.70;;;16.70;;
69161;SDS011;56269;51.738;21.652;2022-07-01T02:59:23;24.80;;;16.33;;
69161;SDS011;56269;51.738;21.652;2022-07-01T03:01:49;44.90;;;19.65;;
69161;SDS011;56269;51.738;21.652;2022-07-01T03:04:15;22.67;;;16.38;;
69161;SDS011;56269;51.738;21.652;2022-07-01T03:06:41;22.23;;;16.43;;
69161;SDS011;56269;51.738;21.652;2022-07-01T03:09:07;21.67;;;15.57;;
69161;SDS011;56269;51.738;21.652;2022-07-01T03:11:33;22.67;;;16.77;;
69161;SDS011;56269;51.738;21.652;2022-07-01T03:13:59;20.25;;;15.73;;
69161;SDS011;56269;51.738;21.652;2022-07-01T03:16:25;23.52;;;16.65;;
69161;SDS011;56269;51.738;21.652;2022-07-01T03:18:51;22.40;;;15.83;;
69161;SDS011;56269;51.738;21.652;2022-07-01T03:21:17;21.38;;;13.88;;
69161;SDS011;56269;51.738;21.652;2022-07-01T03:23:43;19.73;;;13.38;;
69161;SDS011;56269;51.738;21.652;2022-07-01T03:26:09;21.60;;;15.10;;
69161;SDS011;56269;51.738;21.652;2022-07-01T03:28:35;21.40;;;14.67;;
69161;SDS011;56269;51.738;21.652;2022-07-01T03:31:01;21.13;;;14.25;;
69161;SDS011;56269;51.738;21.652;2022-07-01T03:33:27;21.10;;;14.18;;
69161;SDS011;56269;51.738;21.652;2022-07-01T03:35:53;21.75;;;15.23;;
69161;SDS011;56269;51.738;21.652;2022-07-01T03:38:19;33.87;;;14.97;;
69161;SDS011;56269;51.738;21.652;2022-07-01T03:40:45;20.45;;;14.70;;
69161;SDS011;56269;51.738;21.652;2022-07-01T03:43:11;20.15;;;14.07;;
69161;SDS011;56269;51.738;21.652;2022-07-01T03:45:37;18.08;;;12.85;;
69161;SDS011;56269;51.738;21.652;2022-07-01T03:48:05;42.00;;;17.13;;
69161;SDS011;56269;51.738;21.652;2022-07-01T03:50:31;22.05;;;14.25;;
69161;SDS011;56269;51.738;21.652;2022-07-01T03:52:57;17.83;;;13.63;;
69161;SDS011;56269;51.738;21.652;2022-07-01T03:55:41;18.25;;;14.20;;
69161;SDS011;56269;51.738;21.652;2022-07-01T03:58:08;18.58;;;13.60;;
69161;SDS011;56269;51.738;21.652;2022-07-01T04:00:35;17.20;;;13.13;;
69161;SDS011;56269;51.738;21.652;2022-07-01T04:03:02;18.27;;;14.00;;
69161;SDS011;56269;51.738;21.652;2022-07-01T04:05:29;47.60;;;35.05;;
69161;SDS011;56269;51.738;21.652;2022-07-01T04:07:57;19.20;;;14.30;;
69161;SDS011;56269;51.738;21.652;2022-07-01T04:10:23;17.70;;;13.90;;
69161;SDS011;56269;51.738;21.652;2022-07-01T04:12:49;19.00;;;13.53;;
69161;SDS011;56269;51.738;21.652;2022-07-01T04:15:15;19.20;;;13.38;;
69161;SDS011;56269;51.738;21.652;2022-07-01T04:17:42;18.58;;;13.95;;
69161;SDS011;56269;51.738;21.652;2022-07-01T04:20:09;17.50;;;13.48;;
69161;SDS011;56269;51.738;21.652;2022-07-01T04:22:35;16.80;;;13.90;;
69161;SDS011;56269;51.738;21.652;2022-07-01T04:25:01;18.43;;;14.17;;
69161;SDS011;56269;51.738;21.652;2022-07-01T04:27:30;18.67;;;13.98;;
69161;SDS011;56269;51.738;21.652;2022-07-01T04:29:56;17.58;;;14.20;;
69161;SDS011;56269;51.738;21.652;2022-07-01T04:32:22;19.33;;;14.25;;
69161;SDS011;56269;51.738;21.652;2022-07-01T04:34:49;21.00;;;14.47;;
69161;SDS011;56269;51.738;21.652;2022-07-01T04:37:16;21.05;;;14.25;;
69161;SDS011;56269;51.738;21.652;2022-07-01T04:39:41;18.63;;;13.98;;
69161;SDS011;56269;51.738;21.652;2022-07-01T04:42:08;17.25;;;13.93;;
69161;SDS011;56269;51.738;21.652;2022-07-01T04:44:34;20.17;;;13.50;;
69161;SDS011;56269;51.738;21.652;2022-07-01T04:47:02;19.95;;;14.00;;
69161;SDS011;56269;51.738;21.652;2022-07-01T04:49:30;18.67;;;13.70;;
69161;SDS011;56269;51.738;21.652;2022-07-01T04:51:56;18.85;;;13.88;;
69161;SDS011;56269;51.738;21.652;2022-07-01T04:54:23;19.55;;;13.48;;
69161;SDS011;56269;51.738;21.652;2022-07-01T04:56:51;18.23;;;14.17;;
69161;SDS011;56269;51.738;21.652;2022-07-01T04:59:18;17.27;;;14.20;;
69161;SDS011;56269;51.738;21.652;2022-07-01T05:01:45;18.95;;;14.27;;
69161;SDS011;56269;51.738;21.652;2022-07-01T05:04:15;17.45;;;13.27;;
69161;SDS011;56269;51.738;21.652;2022-07-01T05:06:43;17.88;;;13.07;;
69161;SDS011;56269;51.738;21.652;2022-07-01T05:09:09;18.33;;;13.37;;
69161;SDS011;56269;51.738;21.652;2022-07-01T05:11:35;17.35;;;13.00;;
69161;SDS011;56269;51.738;21.652;2022-07-01T05:14:01;16.77;;;12.90;;
69161;SDS011;56269;51.738;21.652;2022-07-01T05:16:27;20.63;;;15.23;;
69161;SDS011;56269;51.738;21.652;2022-07-01T05:18:53;20.63;;;14.40;;
69161;SDS011;56269;51.738;21.652;2022-07-01T05:21:37;20.35;;;13.73;;
69161;SDS011;56269;51.738;21.652;2022-07-01T05:24:21;17.70;;;13.70;;
69161;SDS011;56269;51.738;21.652;2022-07-01T05:26:48;17.60;;;13.68;;
69161;SDS011;56269;51.738;21.652;2022-07-01T05:29:15;21.33;;;13.02;;
69161;SDS011;56269;51.738;21.652;2022-07-01T05:31:41;20.83;;;14.93;;
69161;SDS011;56269;51.738;21.652;2022-07-01T05:34:07;22.42;;;12.07;;
69161;SDS011;56269;51.738;21.652;2022-07-01T05:36:34;278.25;;;28.63;;
69161;SDS011;56269;51.738;21.652;2022-07-01T05:39:00;21.27;;;15.88;;
69161;SDS011;56269;51.738;21.652;2022-07-01T05:41:27;23.20;;;13.63;;
69161;SDS011;56269;51.738;21.652;2022-07-01T05:43:53;19.63;;;12.65;;
69161;SDS011;56269;51.738;21.652;2022-07-01T05:46:19;19.35;;;13.27;;
69161;SDS011;56269;51.738;21.652;2022-07-01T05:48:45;18.80;;;14.02;;
69161;SDS011;56269;51.738;21.652;2022-07-01T05:51:11;16.10;;;9.30;;
69161;SDS011;56269;51.738;21.652;2022-07-01T05:53:37;12.90;;;8.57;;
69161;SDS011;56269;51.738;21.652;2022-07-01T05:56:04;13.90;;;9.20;;
69161;SDS011;56269;51.738;21.652;2022-07-01T05:58:30;15.73;;;9.35;;
69161;SDS011;56269;51.738;21.652;2022-07-01T06:00:56;13.27;;;8.93;;
69161;SDS011;56269;51.738;21.652;2022-07-01T06:03:22;19.40;;;13.73;;
69161;SDS011;56269;51.738;21.652;2022-07-01T06:05:48;17.58;;;12.32;;
69161;SDS011;56269;51.738;21.652;2022-07-01T06:08:14;15.13;;;9.48;;
69161;SDS011;56269;51.738;21.652;2022-07-01T06:10:40;15.63;;;8.02;;
69161;SDS011;56269;51.738;21.652;2022-07-01T06:13:06;23.80;;;8.37;;
69161;SDS011;56269;51.738;21.652;2022-07-01T06:15:33;15.65;;;8.27;;
69161;SDS011;56269;51.738;21.652;2022-07-01T06:17:59;14.93;;;9.45;;
69161;SDS011;56269;51.738;21.652;2022-07-01T06:20:25;14.05;;;9.70;;
69161;SDS011;56269;51.738;21.652;2022-07-01T06:22:51;17.50;;;10.25;;
69161;SDS011;56269;51.738;21.652;2022-07-01T06:25:17;13.13;;;8.63;;
69161;SDS011;56269;51.738;21.652;2022-07-01T06:27:44;14.70;;;8.85;;
69161;SDS011;56269;51.738;21.652;2022-07-01T06:30:11;15.48;;;8.85;;
69161;SDS011;56269;51.738;21.652;2022-07-01T06:32:38;13.40;;;8.23;;
69161;SDS011;56269;51.738;21.652;2022-07-01T06:35:04;16.35;;;12.50;;
69161;SDS011;56269;51.738;21.652;2022-07-01T06:37:31;18.63;;;13.10;;
69161;SDS011;56269;51.738;21.652;2022-07-01T06:40:02;16.38;;;12.27;;
69161;SDS011;56269;51.738;21.652;2022-07-01T06:42:29;13.35;;;8.73;;
69161;SDS011;56269;51.738;21.652;2022-07-01T06:44:55;11.93;;;8.20;;
69161;SDS011;56269;51.738;21.652;2022-07-01T06:47:21;12.65;;;8.07;;
69161;SDS011;56269;51.738;21.652;2022-07-01T06:49:47;45.67;;;9.67;;
69161;SDS011;56269;51.738;21.652;2022-07-01T06:52:14;12.00;;;8.20;;
69161;SDS011;56269;51.738;21.652;2022-07-01T06:54:40;17.23;;;14.73;;
69161;SDS011;56269;51.738;21.652;2022-07-01T06:57:06;13.98;;;11.77;;
69161;SDS011;56269;51.738;21.652;2022-07-01T06:59:32;17.47;;;11.93;;
69161;SDS011;56269;51.738;21.652;2022-07-01T07:01:58;15.65;;;11.95;;
69161;SDS011;56269;51.738;21.652;2022-07-01T07:04:25;15.38;;;12.02;;
69161;SDS011;56269;51.738;21.652;2022-07-01T07:06:51;40.10;;;15.63;;
69161;SDS011;56269;51.738;21.652;2022-07-01T07:09:17;14.65;;;12.43;;
69161;SDS011;56269;51.738;21.652;2022-07-01T07:11:43;15.77;;;11.83;;
69161;SDS011;56269;51.738;21.652;2022-07-01T07:14:09;14.60;;;11.80;;
69161;SDS011;56269;51.738;21.652;2022-07-01T07:16:35;16.30;;;12.30;;
69161;SDS011;56269;51.738;21.652;2022-07-01T07:19:01;17.98;;;12.60;;
69161;SDS011;56269;51.738;21.652;2022-07-01T07:21:27;14.70;;;11.10;;
69161;SDS011;56269;51.738;21.652;2022-07-01T07:23:53;15.73;;;11.82;;
69161;SDS011;56269;51.738;21.652;2022-07-01T07:26:18;14.88;;;12.63;;
69161;SDS011;56269;51.738;21.652;2022-07-01T07:28:45;16.00;;;12.00;;
69161;SDS011;56269;51.738;21.652;2022-07-01T07:31:11;15.85;;;11.27;;
69161;SDS011;56269;51.738;21.652;2022-07-01T07:33:36;14.15;;;11.77;;
69161;SDS011;56269;51.738;21.652;2022-07-01T07:36:03;20.83;;;12.07;;
69161;SDS011;56269;51.738;21.652;2022-07-01T07:38:29;13.90;;;11.73;;
69161;SDS011;56269;51.738;21.652;2022-07-01T07:40:55;16.65;;;11.80;;
69161;SDS011;56269;51.738;21.652;2022-07-01T07:43:21;15.77;;;12.23;;
69161;SDS011;56269;51.738;21.652;2022-07-01T07:45:47;15.13;;;11.77;;
69161;SDS011;56269;51.738;21.652;2022-07-01T07:48:13;14.10;;;11.20;;
69161;SDS011;56269;51.738;21.652;2022-07-01T07:50:39;17.88;;;11.88;;
69161;SDS011;56269;51.738;21.652;2022-07-01T07:53:05;14.60;;;11.55;;
69161;SDS011;56269;51.738;21.652;2022-07-01T07:55:32;18.20;;;12.13;;
69161;SDS011;56269;51.738;21.652;2022-07-01T07:57:58;14.30;;;12.32;;
69161;SDS011;56269;51.738;21.652;2022-07-01T08:00:24;14.37;;;11.90;;
69161;SDS011;56269;51.738;21.652;2022-07-01T08:02:50;16.40;;;11.93;;
69161;SDS011;56269;51.738;21.652;2022-07-01T08:05:16;16.52;;;11.80;;
69161;SDS011;56269;51.738;21.652;2022-07-01T08:07:42;14.73;;;11.32;;
69161;SDS011;56269;51.738;21.652;2022-07-01T08:10:09;15.23;;;11.98;;
69161;SDS011;56269;51.738;21.652;2022-07-01T08:12:37;19.63;;;11.97;;
69161;SDS011;56269;51.738;21.652;2022-07-01T08:15:03;12.73;;;8.50;;
69161;SDS011;56269;51.738;21.652;2022-07-01T08:17:29;15.30;;;10.68;;
69161;SDS011;56269;51.738;21.652;2022-07-01T08:19:56;14.23;;;9.30;;
69161;SDS011;56269;51.738;21.652;2022-07-01T08:22:25;12.37;;;9.73;;
69161;SDS011;56269;51.738;21.652;2022-07-01T08:24:51;14.40;;;10.13;;
69161;SDS011;56269;51.738;21.652;2022-07-01T08:27:17;12.73;;;9.80;;
69161;SDS011;56269;51.738;21.652;2022-07-01T08:29:43;12.10;;;8.90;;
69161;SDS011;56269;51.738;21.652;2022-07-01T08:32:09;15.23;;;10.03;;
69161;SDS011;56269;51.738;21.652;2022-07-01T08:34:35;11.73;;;8.82;;
69161;SDS011;56269;51.738;21.652;2022-07-01T08:37:02;10.93;;;6.95;;
69161;SDS011;56269;51.738;21.652;2022-07-01T08:39:29;15.98;;;9.30;;
69161;SDS011;56269;51.738;21.652;2022-07-01T08:41:55;11.88;;;9.32;;
69161;SDS011;56269;51.738;21.652;2022-07-01T08:44:22;13.00;;;9.47;;
69161;SDS011;56269;51.738;21.652;2022-07-01T08:46:48;12.73;;;10.07;;
69161;SDS011;56269;51.738;21.652;2022-07-01T08:49:15;13.32;;;9.77;;
69161;SDS011;56269;51.738;21.652;2022-07-01T08:51:41;13.70;;;10.18;;
69161;SDS011;56269;51.738;21.652;2022-07-01T08:54:07;11.90;;;9.23;;
69161;SDS011;56269;51.738;21.652;2022-07-01T08:56:33;14.60;;;9.73;;
69161;SDS011;56269;51.738;21.652;2022-07-01T08:59:26;12.32;;;9.02;;
69161;SDS011;56269;51.738;21.652;2022-07-01T09:02:03;13.55;;;9.40;;
69161;SDS011;56269;51.738;21.652;2022-07-01T09:04:30;13.52;;;9.80;;
69161;SDS011;56269;51.738;21.652;2022-07-01T09:07:04;11.93;;;7.80;;
69161;SDS011;56269;51.738;21.652;2022-07-01T09:09:35;13.00;;;8.87;;
69161;SDS011;56269;51.738;21.652;2022-07-01T09:12:03;14.10;;;9.25;;
69161;SDS011;56269;51.738;21.652;2022-07-01T09:14:31;12.38;;;8.40;;
69161;SDS011;56269;51.738;21.652;2022-07-01T09:17:00;13.07;;;8.93;;
69161;SDS011;56269;51.738;21.652;2022-07-01T09:19:29;11.77;;;8.55;;
69161;SDS011;56269;51.738;21.652;2022-07-01T09:21:58;11.37;;;8.60;;
69161;SDS011;56269;51.738;21.652;2022-07-01T09:27:12;11.93;;;9.15;;
69161;SDS011;56269;51.738;21.652;2022-07-01T09:32:13;13.75;;;9.40;;
69161;SDS011;56269;51.738;21.652;2022-07-01T09:34:44;12.87;;;8.47;;
69161;SDS011;56269;51.738;21.652;2022-07-01T09:37:12;14.00;;;8.73;;
69161;SDS011;56269;51.738;21.652;2022-07-01T09:39:49;12.13;;;8.73;;
69161;SDS011;56269;51.738;21.652;2022-07-01T09:42:20;12.73;;;8.75;;
69161;SDS011;56269;51.738;21.652;2022-07-01T09:47:29;10.80;;;9.00;;
69161;SDS011;56269;51.738;21.652;2022-07-01T09:49:57;12.38;;;8.60;;
69161;SDS011;56269;51.738;21.652;2022-07-01T09:52:24;11.05;;;7.95;;
69161;SDS011;56269;51.738;21.652;2022-07-01T09:54:51;11.25;;;7.68;;
69161;SDS011;56269;51.738;21.652;2022-07-01T09:57:18;10.68;;;6.97;;
69161;SDS011;56269;51.738;21.652;2022-07-01T09:59:45;12.00;;;7.93;;
69161;SDS011;56269;51.738;21.652;2022-07-01T10:02:11;12.90;;;8.18;;
69161;SDS011;56269;51.738;21.652;2022-07-01T10:04:38;11.20;;;7.78;;
69161;SDS011;56269;51.738;21.652;2022-07-01T10:10:01;12.98;;;8.98;;
69161;SDS011;56269;51.738;21.652;2022-07-01T10:12:39;13.77;;;8.43;;
69161;SDS011;56269;51.738;21.652;2022-07-01T10:15:08;9.85;;;6.47;;
69161;SDS011;56269;51.738;21.652;2022-07-01T10:17:40;11.18;;;8.05;;
69161;SDS011;56269;51.738;21.652;2022-07-01T10:20:09;11.63;;;7.40;;
69161;SDS011;56269;51.738;21.652;2022-07-01T10:22:40;11.45;;;8.45;;
69161;SDS011;56269;51.738;21.652;2022-07-01T10:31:06;10.70;;;8.10;;
69161;SDS011;56269;51.738;21.652;2022-07-01T10:33:41;10.88;;;7.95;;
69161;SDS011;56269;51.738;21.652;2022-07-01T10:36:13;12.02;;;8.80;;
69161;SDS011;56269;51.738;21.652;2022-07-01T10:41:38;10.60;;;8.13;;
69161;SDS011;56269;51.738;21.652;2022-07-01T10:44:20;13.27;;;7.43;;
69161;SDS011;56269;51.738;21.652;2022-07-01T10:46:48;11.70;;;8.45;;
69161;SDS011;56269;51.738;21.652;2022-07-01T10:52:10;14.07;;;8.10;;
69161;SDS011;56269;51.738;21.652;2022-07-01T10:59:41;12.63;;;8.60;;
69161;SDS011;56269;51.738;21.652;2022-07-01T11:02:21;11.18;;;7.88;;
69161;SDS011;56269;51.738;21.652;2022-07-01T11:04:56;12.63;;;8.50;;
69161;SDS011;56269;51.738;21.652;2022-07-01T11:07:24;11.52;;;7.85;;
69161;SDS011;56269;51.738;21.652;2022-07-01T11:09:54;10.00;;;7.35;;
69161;SDS011;56269;51.738;21.652;2022-07-01T11:12:22;12.20;;;7.80;;
69161;SDS011;56269;51.738;21.652;2022-07-01T11:14:51;10.50;;;6.47;;
69161;SDS011;56269;51.738;21.652;2022-07-01T11:17:18;11.50;;;7.77;;
69161;SDS011;56269;51.738;21.652;2022-07-01T11:19:48;11.43;;;7.80;;
69161;SDS011;56269;51.738;21.652;2022-07-01T11:22:19;12.80;;;7.45;;
69161;SDS011;56269;51.738;21.652;2022-07-01T11:24:46;12.23;;;7.75;;
69161;SDS011;56269;51.738;21.652;2022-07-01T11:27:16;10.43;;;7.75;;
69161;SDS011;56269;51.738;21.652;2022-07-01T11:29:42;11.43;;;7.37;;
69161;SDS011;56269;51.738;21.652;2022-07-01T11:32:08;10.02;;;6.45;;
69161;SDS011;56269;51.738;21.652;2022-07-01T11:34:35;12.18;;;7.93;;
69161;SDS011;56269;51.738;21.652;2022-07-01T11:37:07;10.00;;;6.78;;
69161;SDS011;56269;51.738;21.652;2022-07-01T11:40:04;10.10;;;7.50;;
69161;SDS011;56269;51.738;21.652;2022-07-01T11:42:35;9.30;;;6.97;;
69161;SDS011;56269;51.738;21.652;2022-07-01T11:45:01;14.63;;;7.50;;
69161;SDS011;56269;51.738;21.652;2022-07-01T11:47:28;12.80;;;6.90;;
69161;SDS011;56269;51.738;21.652;2022-07-01T11:49:55;10.13;;;7.15;;
69161;SDS011;56269;51.738;21.652;2022-07-01T11:52:21;11.15;;;7.82;;
69161;SDS011;56269;51.738;21.652;2022-07-01T11:54:53;9.93;;;7.23;;
69161;SDS011;56269;51.738;21.652;2022-07-01T11:57:22;11.05;;;7.20;;
69161;SDS011;56269;51.738;21.652;2022-07-01T11:59:53;10.02;;;7.10;;
69161;SDS011;56269;51.738;21.652;2022-07-01T12:02:21;10.38;;;7.20;;
69161;SDS011;56269;51.738;21.652;2022-07-01T12:04:49;11.85;;;7.28;;
69161;SDS011;56269;51.738;21.652;2022-07-01T12:07:19;10.97;;;7.53;;
69161;SDS011;56269;51.738;21.652;2022-07-01T12:09:50;9.95;;;6.90;;
69161;SDS011;56269;51.738;21.652;2022-07-01T12:12:20;10.80;;;6.90;;
69161;SDS011;56269;51.738;21.652;2022-07-01T12:14:50;10.25;;;7.30;;
69161;SDS011;56269;51.738;21.652;2022-07-01T12:17:20;10.73;;;8.20;;
69161;SDS011;56269;51.738;21.652;2022-07-01T12:19:47;11.25;;;8.30;;
69161;SDS011;56269;51.738;21.652;2022-07-01T12:22:18;18.08;;;8.52;;
69161;SDS011;56269;51.738;21.652;2022-07-01T12:24:46;11.02;;;7.10;;
69161;SDS011;56269;51.738;21.652;2022-07-01T12:27:12;11.80;;;8.10;;
69161;SDS011;56269;51.738;21.652;2022-07-01T12:32:06;14.18;;;7.93;;
69161;SDS011;56269;51.738;21.652;2022-07-01T12:34:36;11.32;;;8.10;;
69161;SDS011;56269;51.738;21.652;2022-07-01T12:37:15;10.13;;;8.13;;
69161;SDS011;56269;51.738;21.652;2022-07-01T12:40:01;10.40;;;7.88;;
69161;SDS011;56269;51.738;21.652;2022-07-01T12:42:32;12.77;;;8.13;;
69161;SDS011;56269;51.738;21.652;2022-07-01T12:45:07;10.88;;;7.88;;
69161;SDS011;56269;51.738;21.652;2022-07-01T12:47:38;9.77;;;7.40;;
69161;SDS011;56269;51.738;21.652;2022-07-01T12:50:09;9.80;;;7.97;;
69161;SDS011;56269;51.738;21.652;2022-07-01T12:52:36;10.73;;;7.82;;
69161;SDS011;56269;51.738;21.652;2022-07-01T12:55:20;11.37;;;8.13;;
69161;SDS011;56269;51.738;21.652;2022-07-01T12:57:51;10.68;;;8.00;;
69161;SDS011;56269;51.738;21.652;2022-07-01T13:00:20;12.00;;;8.40;;
69161;SDS011;56269;51.738;21.652;2022-07-01T13:02:50;12.43;;;8.27;;
69161;SDS011;56269;51.738;21.652;2022-07-01T13:05:17;9.90;;;7.25;;
69161;SDS011;56269;51.738;21.652;2022-07-01T13:07:44;10.07;;;8.07;;
69161;SDS011;56269;51.738;21.652;2022-07-01T13:10:10;12.38;;;8.75;;
69161;SDS011;56269;51.738;21.652;2022-07-01T13:12:36;12.70;;;8.20;;
69161;SDS011;56269;51.738;21.652;2022-07-01T13:15:02;14.98;;;8.27;;
69161;SDS011;56269;51.738;21.652;2022-07-01T13:17:28;11.63;;;7.03;;
69161;SDS011;56269;51.738;21.652;2022-07-01T13:19:54;10.57;;;7.90;;
69161;SDS011;56269;51.738;21.652;2022-07-01T13:22:33;10.52;;;6.97;;
69161;SDS011;56269;51.738;21.652;2022-07-01T13:24:59;11.85;;;7.82;;
69161;SDS011;56269;51.738;21.652;2022-07-01T13:27:26;11.52;;;5.95;;
69161;SDS011;56269;51.738;21.652;2022-07-01T13:29:52;9.93;;;6.97;;
69161;SDS011;56269;51.738;21.652;2022-07-01T13:32:18;9.93;;;7.68;;
69161;SDS011;56269;51.738;21.652;2022-07-01T13:34:44;11.75;;;7.93;;
69161;SDS011;56269;51.738;21.652;2022-07-01T13:37:11;11.25;;;7.85;;
69161;SDS011;56269;51.738;21.652;2022-07-01T13:39:37;11.37;;;7.60;;
69161;SDS011;56269;51.738;21.652;2022-07-01T13:42:03;12.70;;;7.30;;
69161;SDS011;56269;51.738;21.652;2022-07-01T13:44:30;11.32;;;7.63;;
69161;SDS011;56269;51.738;21.652;2022-07-01T13:46:55;9.70;;;6.97;;
69161;SDS011;56269;51.738;21.652;2022-07-01T13:49:22;14.10;;;7.97;;
69161;SDS011;56269;51.738;21.652;2022-07-01T13:51:48;11.37;;;7.40;;
69161;SDS011;56269;51.738;21.652;2022-07-01T13:54:14;11.63;;;7.72;;
69161;SDS011;56269;51.738;21.652;2022-07-01T13:56:40;10.35;;;7.40;;
69161;SDS011;56269;51.738;21.652;2022-07-01T13:59:07;9.73;;;6.63;;
69161;SDS011;56269;51.738;21.652;2022-07-01T14:01:33;10.57;;;7.13;;
69161;SDS011;56269;51.738;21.652;2022-07-01T14:04:00;8.97;;;6.70;;
69161;SDS011;56269;51.738;21.652;2022-07-01T14:06:26;10.20;;;6.90;;
69161;SDS011;56269;51.738;21.652;2022-07-01T14:08:52;9.75;;;6.90;;
69161;SDS011;56269;51.738;21.652;2022-07-01T14:11:18;13.18;;;6.80;;
69161;SDS011;56269;51.738;21.652;2022-07-01T14:13:44;10.80;;;6.87;;
69161;SDS011;56269;51.738;21.652;2022-07-01T14:16:10;8.80;;;6.60;;
69161;SDS011;56269;51.738;21.652;2022-07-01T14:18:36;10.20;;;6.88;;
69161;SDS011;56269;51.738;21.652;2022-07-01T14:21:03;11.30;;;6.90;;
69161;SDS011;56269;51.738;21.652;2022-07-01T14:23:30;10.23;;;6.57;;
69161;SDS011;56269;51.738;21.652;2022-07-01T14:25:57;9.27;;;5.30;;
69161;SDS011;56269;51.738;21.652;2022-07-01T14:28:23;10.50;;;6.38;;
69161;SDS011;56269;51.738;21.652;2022-07-01T14:30:49;9.07;;;6.35;;
69161;SDS011;56269;51.738;21.652;2022-07-01T14:33:16;9.52;;;6.40;;
69161;SDS011;56269;51.738;21.652;2022-07-01T14:35:43;9.47;;;6.10;;
69161;SDS011;56269;51.738;21.652;2022-07-01T14:38:10;10.23;;;6.13;;
69161;SDS011;56269;51.738;21.652;2022-07-01T14:40:36;10.15;;;6.43;;
69161;SDS011;56269;51.738;21.652;2022-07-01T14:43:03;9.30;;;6.35;;
69161;SDS011;56269;51.738;21.652;2022-07-01T14:45:29;9.45;;;6.10;;
69161;SDS011;56269;51.738;21.652;2022-07-01T14:47:55;9.07;;;6.10;;